createdAt,value
2018-09-09T00:02:18.317Z,67.70
2018-09-09T00:07:28.129Z,67.60
2018-09-09T00:15:13.138Z,67.70
2018-09-09T00:17:48.198Z,67.70
2018-09-09T00:28:07.798Z,67.80
2018-09-09T00:33:17.647Z,67.80
2018-09-09T00:38:27.786Z,67.70
2018-09-09T00:43:38.017Z,67.80
2018-09-09T00:48:47.966Z,67.70
2018-09-09T00:56:38.013Z,67.70
2018-09-09T00:59:13.143Z,67.70
2018-09-09T01:01:48.289Z,67.70
2018-09-09T01:04:23.336Z,67.70
2018-09-09T01:09:33.828Z,67.70
2018-09-09T01:12:08.818Z,67.70
2018-09-09T01:14:43.861Z,67.80
2018-09-09T01:19:53.705Z,67.80
2018-09-09T01:27:38.234Z,67.90
2018-09-09T01:43:07.219Z,67.90
2018-09-09T01:48:17.088Z,67.80
2018-09-09T01:50:52.180Z,67.90
2018-09-09T01:53:27.273Z,67.90
2018-09-09T01:56:02.397Z,67.90
2018-09-09T02:01:12.268Z,68.00
2018-09-09T02:06:22.460Z,67.90
2018-09-09T02:11:32.417Z,67.90
2018-09-09T02:14:07.585Z,67.90
2018-09-09T02:16:42.656Z,67.90
2018-09-09T02:19:17.816Z,67.90
2018-09-09T02:21:53.033Z,67.90
2018-09-09T02:27:03.246Z,67.90
2018-09-09T02:32:13.221Z,67.90
2018-09-09T02:34:48.322Z,67.90
2018-09-09T02:37:23.462Z,67.90
2018-09-09T02:39:58.629Z,68.00
2018-09-09T02:45:08.572Z,67.90
2018-09-09T02:47:43.706Z,67.90
2018-09-09T02:50:18.798Z,67.90
2018-09-09T02:55:28.685Z,67.90
2018-09-09T03:00:38.914Z,68.00
2018-09-09T03:05:48.828Z,67.90
2018-09-09T03:18:48.677Z,67.90
2018-09-09T03:23:58.615Z,67.90
2018-09-09T03:29:08.773Z,68.00
2018-09-09T03:36:53.209Z,68.00
2018-09-09T03:44:38.229Z,68.00
2018-09-09T03:49:48.120Z,68.00
2018-09-09T03:54:57.945Z,67.90
2018-09-09T03:57:33.023Z,67.90
2018-09-09T04:00:08.177Z,67.90
2018-09-09T04:02:43.225Z,68.10
2018-09-09T04:07:53.604Z,68.00
2018-09-09T04:13:03.402Z,68.00
2018-09-09T04:25:57.650Z,68.00
2018-09-09T04:31:07.356Z,68.20
2018-09-09T04:33:42.428Z,68.00
2018-09-09T04:38:52.284Z,68.10
2018-09-09T04:44:02.105Z,68.10
2018-09-09T04:46:37.302Z,68.10
2018-09-09T04:51:47.125Z,68.10
2018-09-09T04:56:56.917Z,68.10
2018-09-09T04:59:32.023Z,68.10
2018-09-09T05:04:41.849Z,68.10
2018-09-09T05:09:51.707Z,68.10
2018-09-09T05:12:26.766Z,68.10
2018-09-09T05:17:36.626Z,68.10
2018-09-09T05:25:21.120Z,68.10
2018-09-09T05:30:30.981Z,68.10
2018-09-09T05:33:06.052Z,68.20
2018-09-09T05:43:25.749Z,68.20
2018-09-09T05:46:00.832Z,68.20
2018-09-09T05:48:35.967Z,68.20
2018-09-09T05:51:11.005Z,68.20
2018-09-09T06:01:30.513Z,68.20
2018-09-09T06:04:05.704Z,68.20
2018-09-09T06:06:40.858Z,68.20
2018-09-09T06:09:15.944Z,68.10
2018-09-09T06:11:51.022Z,68.20
2018-09-09T06:14:26.189Z,68.20
2018-09-09T06:17:01.237Z,68.20
2018-09-09T06:22:11.225Z,68.20
2018-09-09T06:24:46.310Z,68.20
2018-09-09T06:29:56.188Z,68.20
2018-09-09T06:35:06.072Z,68.30
2018-09-09T06:37:41.101Z,68.20
2018-09-09T06:50:35.149Z,68.20
2018-09-09T06:58:19.866Z,68.20
2018-09-09T07:03:29.876Z,68.30
2018-09-09T07:06:04.917Z,68.30
2018-09-09T07:08:40.309Z,68.20
2018-09-09T07:13:50.520Z,68.10
2018-09-09T07:21:35.753Z,68.20
2018-09-09T07:24:11.069Z,68.30
2018-09-09T07:29:21.312Z,68.30
2018-09-09T07:37:05.829Z,68.00
2018-09-09T07:42:16.281Z,67.80
2018-09-09T07:47:26.468Z,67.90
2018-09-09T07:52:36.774Z,67.90
2018-09-09T07:57:46.683Z,68.10
2018-09-09T08:00:21.720Z,67.90
2018-09-09T08:02:57.182Z,68.00
2018-09-09T08:10:41.825Z,67.40
2018-09-09T08:15:52.274Z,67.10
2018-09-09T08:26:12.724Z,66.20
2018-09-09T08:31:23.800Z,66.40
2018-09-09T08:33:58.789Z,66.30
2018-09-09T08:36:33.817Z,66.70
2018-09-09T08:39:10.120Z,66.30
2018-09-09T08:41:45.206Z,66.50
2018-09-09T08:49:29.805Z,66.50
2018-09-09T08:54:39.911Z,66.30
2018-09-09T09:04:59.247Z,66.20
2018-09-09T09:15:19.127Z,66.30
2018-09-09T09:17:54.428Z,66.00
2018-09-09T09:20:29.877Z,66.10
2018-09-09T09:25:44.649Z,65.90
2018-09-09T09:28:20.515Z,66.00
2018-09-09T09:30:55.534Z,65.80
2018-09-09T09:33:30.599Z,65.80
2018-09-09T09:36:05.645Z,65.60
2018-09-09T09:38:40.736Z,65.50
2018-09-09T09:41:15.826Z,65.50
2018-09-09T09:43:50.946Z,65.90
2018-09-09T09:51:35.521Z,65.40
2018-09-09T09:56:45.353Z,65.20
2018-09-09T10:01:55.185Z,65.30
2018-09-09T10:04:30.341Z,65.20
2018-09-09T10:07:05.393Z,65.10
2018-09-09T10:09:40.497Z,65.10
2018-09-09T10:14:50.392Z,64.90
2018-09-09T10:22:34.753Z,65.00
2018-09-09T10:35:29.590Z,64.90
2018-09-09T10:40:39.453Z,64.90
2018-09-09T10:43:14.526Z,64.90
2018-09-09T10:48:24.247Z,64.80
2018-09-09T10:53:34.582Z,64.70
2018-09-09T10:58:44.646Z,64.70
2018-09-09T11:03:54.915Z,64.70
2018-09-09T11:06:29.956Z,64.70
2018-09-09T11:09:06.834Z,64.70
2018-09-09T11:11:41.972Z,64.80
2018-09-09T11:24:36.228Z,64.60
2018-09-09T11:29:46.175Z,64.60
2018-09-09T11:32:21.198Z,64.50
2018-09-09T11:37:31.087Z,64.50
2018-09-09T11:42:41.201Z,64.50
2018-09-09T11:47:51.177Z,64.40
2018-09-09T11:50:26.213Z,64.30
2018-09-09T11:55:36.452Z,64.30
2018-09-09T12:05:55.741Z,64.30
2018-09-09T12:08:30.830Z,64.30
2018-09-09T12:11:06.424Z,64.30
2018-09-09T12:16:16.460Z,64.20
2018-09-09T12:24:01.150Z,64.20
2018-09-09T12:29:10.951Z,64.20
2018-09-09T12:36:55.593Z,64.10
2018-09-09T12:44:48.086Z,64.10
2018-09-09T12:52:08.608Z,64.20
2018-09-09T12:57:18.862Z,64.10
2018-09-09T13:05:03.583Z,64.10
2018-09-09T13:10:13.435Z,64.20
2018-09-09T13:18:03.530Z,64.10
2018-09-09T13:20:38.613Z,64.10
2018-09-09T13:25:48.442Z,64.10
2018-09-09T13:30:58.282Z,64.10
2018-09-09T13:33:33.343Z,64.10
2018-09-09T13:36:08.693Z,64.20
2018-09-09T13:38:43.826Z,64.20
2018-09-09T13:41:19.044Z,64.20
2018-09-09T13:56:47.959Z,64.20
2018-09-09T14:04:32.626Z,64.20
2018-09-09T14:12:17.247Z,64.20
2018-09-09T14:14:52.285Z,64.10
2018-09-09T14:17:27.399Z,64.10
2018-09-09T14:22:37.569Z,64.10
2018-09-09T14:27:47.639Z,64.10
2018-09-09T14:30:22.732Z,64.00
2018-09-09T14:35:32.572Z,64.00
2018-09-09T14:40:42.516Z,63.90
2018-09-09T14:45:52.425Z,64.00
2018-09-09T14:48:27.630Z,64.00
2018-09-09T14:51:02.738Z,64.00
2018-09-09T14:53:37.962Z,64.00
2018-09-09T14:56:13.275Z,64.00
2018-09-09T14:58:48.314Z,63.90
2018-09-09T15:01:23.445Z,63.90
2018-09-09T15:03:58.541Z,63.90
2018-09-09T15:06:33.656Z,63.80
2018-09-09T15:11:44.590Z,63.90
2018-09-09T15:19:29.764Z,61.20
2018-09-09T15:22:04.976Z,61.20
2018-09-09T15:29:38.619Z,62.20
2018-09-09T15:39:35.508Z,62.80
2018-09-09T15:42:05.092Z,62.80
2018-09-09T15:44:35.299Z,63.00
2018-09-09T15:49:33.986Z,63.00
2018-09-09T15:52:03.558Z,63.20
2018-09-09T15:54:33.085Z,63.10
2018-09-09T15:57:02.640Z,63.30
2018-09-09T15:59:32.193Z,63.10
2018-09-09T16:04:31.354Z,62.90
2018-09-09T16:16:57.396Z,63.40
2018-09-09T16:19:26.968Z,63.60
2018-09-09T16:24:25.826Z,63.80
2018-09-09T16:26:55.658Z,63.80
2018-09-09T16:31:54.396Z,64.00
2018-09-09T16:36:53.079Z,64.00
2018-09-09T16:41:51.749Z,64.00
2018-09-09T16:44:21.403Z,64.00
2018-09-09T16:46:51.514Z,64.00
2018-09-09T16:49:21.133Z,64.00
2018-09-09T16:59:17.978Z,63.80
2018-09-09T17:19:12.060Z,64.70
2018-09-09T17:21:41.603Z,64.80
2018-09-09T17:29:10.024Z,64.60
2018-09-09T17:31:39.598Z,64.70
2018-09-09T17:34:09.137Z,64.60
2018-09-09T17:49:06.896Z,64.80
2018-09-09T17:51:36.463Z,64.80
2018-09-09T17:54:06.510Z,64.80
2018-09-09T17:59:05.446Z,64.70
2018-09-09T18:11:32.278Z,64.90
2018-09-09T18:14:01.845Z,65.00
2018-09-09T18:23:59.757Z,65.20
2018-09-09T18:33:58.744Z,65.30
2018-09-09T18:38:57.867Z,65.30
2018-09-09T18:41:27.283Z,65.40
2018-09-09T18:46:25.938Z,65.40
2018-09-09T18:48:55.527Z,65.40
2018-09-09T18:58:52.556Z,65.40
2018-09-09T19:01:22.103Z,65.40
2018-09-09T19:06:20.883Z,65.40
2018-09-09T19:08:50.712Z,65.40
2018-09-09T19:13:49.867Z,65.40
2018-09-09T19:16:19.379Z,65.40
2018-09-09T19:21:18.366Z,65.40
2018-09-09T19:23:48.290Z,65.50
2018-09-09T19:26:17.832Z,65.40
2018-09-09T19:28:47.402Z,65.50
2018-09-09T19:33:46.097Z,65.50
2018-09-09T19:38:44.754Z,65.50
2018-09-09T19:41:14.290Z,65.40
2018-09-09T19:46:13.250Z,65.60
2018-09-09T19:53:41.282Z,65.80
2018-09-09T19:58:39.966Z,65.80
2018-09-09T20:11:06.193Z,65.60
2018-09-09T20:16:04.868Z,65.70
2018-09-09T20:45:58.437Z,65.80
2018-09-09T20:48:27.979Z,65.90
2018-09-09T20:53:26.931Z,65.90
2018-09-09T21:00:55.376Z,65.90
2018-09-09T21:03:24.917Z,65.90
2018-09-09T21:05:54.453Z,65.90
2018-09-09T21:08:23.999Z,65.90
2018-09-09T21:10:53.533Z,65.90
2018-09-09T21:13:23.096Z,65.90
2018-09-09T21:18:22.249Z,66.10
2018-09-09T21:20:51.805Z,66.00
2018-09-09T21:23:21.361Z,66.00
2018-09-09T21:25:52.188Z,66.00
2018-09-09T21:33:20.689Z,66.10
2018-09-09T21:43:18.026Z,66.10
2018-09-09T21:45:47.569Z,66.20
2018-09-09T21:48:17.128Z,66.10
2018-09-09T21:53:16.225Z,66.10
2018-09-09T21:55:45.800Z,66.20
2018-09-09T22:00:49.784Z,66.20
2018-09-09T22:03:19.376Z,66.20
2018-09-09T22:05:48.922Z,66.20
2018-09-09T22:08:18.473Z,66.20
2018-09-09T22:10:48.029Z,66.30
2018-09-09T22:13:17.567Z,66.20
2018-09-09T22:15:47.102Z,66.30
2018-09-09T22:18:16.660Z,66.20
2018-09-09T22:23:15.315Z,66.20
2018-09-09T22:28:13.965Z,66.30
2018-09-09T22:30:43.515Z,66.20
2018-09-09T22:35:42.169Z,66.30
2018-09-09T22:38:11.719Z,66.30
2018-09-09T22:43:10.362Z,66.30
2018-09-09T22:45:40.877Z,66.30
2018-09-09T22:48:11.406Z,66.30
2018-09-09T22:53:10.537Z,66.30
2018-09-09T23:03:07.873Z,66.40
2018-09-09T23:05:37.790Z,66.50
2018-09-09T23:08:07.659Z,66.40
2018-09-09T23:10:37.868Z,66.50
2018-09-09T23:13:07.779Z,66.50
2018-09-09T23:18:07.753Z,66.40
2018-09-09T23:20:38.152Z,66.20
2018-09-09T23:23:08.079Z,66.50
2018-09-09T23:25:38.289Z,66.40
2018-09-09T23:28:08.633Z,66.50
2018-09-09T23:30:38.421Z,66.50
2018-09-09T23:33:09.063Z,66.50
2018-09-09T23:35:38.598Z,66.50
2018-09-09T23:38:08.865Z,66.50
2018-09-09T23:40:38.689Z,66.50
2018-09-09T23:43:08.912Z,66.50
2018-09-09T23:48:08.134Z,66.50
2018-09-09T23:50:37.689Z,66.60
2018-09-09T23:55:36.506Z,66.60
2018-09-09T23:58:06.056Z,66.60
